Time;durP1;ratioP1;P1;durP2;ratioP2;P2;SDS_P1;SDS_P2;PMS_P1;PMS_P2;Temp;Humidity;BMP_temperature;BMP_pressure;BME280_temperature;BME280_humidity;BME280_pressure;Samples;Min_cycle;Max_cycle;Signal;HPM_P1;HPM_P2
2021/11/23 00:00:36;;;;;;;7.10;5.67;;;1.80;99.90;;;;;;5013370;28;20390;-73
2021/11/23 00:03:01;;;;;;;6.23;5.60;;;1.70;99.90;;;;;;5013036;28;20946;-73
2021/11/23 00:05:27;;;;;;;5.33;4.90;;;1.70;99.90;;;;;;4995813;28;20418;-73
2021/11/23 00:07:53;;;;;;;7.10;5.33;;;1.60;99.90;;;;;;5013445;28;20183;-73
2021/11/23 00:10:19;;;;;;;5.57;4.90;;;1.60;99.90;;;;;;5013034;28;20392;-73
2021/11/23 00:12:44;;;;;;;5.67;5.17;;;1.60;99.90;;;;;;5012997;28;20194;-71
2021/11/23 00:15:10;;;;;;;6.07;5.50;;;1.60;99.90;;;;;;5013032;28;20200;-73
2021/11/23 00:17:36;;;;;;;6.50;5.80;;;1.60;99.90;;;;;;5013190;28;20224;-73
2021/11/23 00:20:03;;;;;;;5.33;4.83;;;1.50;99.90;;;;;;5012995;28;20922;-72
2021/11/23 00:22:31;;;;;;;5.80;4.90;;;1.50;99.90;;;;;;5012845;28;20202;-72
2021/11/23 00:24:57;;;;;;;7.67;5.57;;;1.50;99.90;;;;;;5012885;28;20391;-72
2021/11/23 00:27:23;;;;;;;6.60;5.13;;;1.50;99.90;;;;;;4995454;28;20502;-72
2021/11/23 00:29:48;;;;;;;8.23;5.57;;;1.40;99.90;;;;;;5012975;28;20845;-72
2021/11/23 00:32:14;;;;;;;7.77;5.67;;;1.40;99.90;;;;;;5012376;28;20285;-73
2021/11/23 00:34:39;;;;;;;6.30;5.43;;;1.40;99.90;;;;;;5012556;28;20257;-72
2021/11/23 00:37:05;;;;;;;5.23;4.73;;;1.30;99.90;;;;;;5012630;28;20175;-72
2021/11/23 00:39:31;;;;;;;7.97;5.43;;;1.20;99.90;;;;;;5012564;28;20171;-73
2021/11/23 00:41:56;;;;;;;6.83;5.40;;;1.10;99.90;;;;;;5012673;28;20600;-73
2021/11/23 00:44:22;;;;;;;6.50;5.93;;;1.10;99.90;;;;;;5012176;28;20543;-73
2021/11/23 00:46:49;;;;;;;6.03;4.90;;;1.10;99.90;;;;;;5012682;28;20251;-73
2021/11/23 00:49:17;;;;;;;5.90;5.40;;;1.00;99.90;;;;;;5011615;28;20172;-72
2021/11/23 00:51:43;;;;;;;6.30;5.70;;;0.90;99.90;;;;;;4994793;28;20452;-73
2021/11/23 00:54:09;;;;;;;5.60;4.70;;;0.90;99.90;;;;;;5011934;28;20435;-72
2021/11/23 00:56:35;;;;;;;6.07;5.57;;;0.90;99.90;;;;;;5012566;28;20791;-72
2021/11/23 00:59:01;;;;;;;10.30;5.80;;;0.80;99.90;;;;;;5012281;28;20169;-72
2021/11/23 05:30:43;;;;;;;13.23;8.33;;;-1.70;99.90;;;;;;6088186;23;20347;-70
2021/11/23 05:33:08;;;;;;;15.13;9.50;;;-1.70;99.90;;;;;;5006671;28;20950;-71
2021/11/23 05:35:34;;;;;;;13.13;8.30;;;-1.70;99.90;;;;;;5007693;28;20175;-73
2021/11/23 05:37:59;;;;;;;16.20;9.53;;;-1.70;99.90;;;;;;5011938;28;20670;-73
2021/11/23 05:40:25;;;;;;;13.00;9.17;;;-1.80;99.90;;;;;;4994007;28;20183;-73
2021/11/23 05:42:50;;;;;;;14.30;8.43;;;-1.80;99.90;;;;;;5011693;28;20188;-73
2021/11/23 05:45:16;;;;;;;13.90;9.83;;;-1.80;99.90;;;;;;5011832;28;20176;-73
2021/11/23 05:47:42;;;;;;;13.00;9.07;;;-1.80;99.90;;;;;;5011866;28;20184;-72
2021/11/23 05:50:08;;;;;;;10.63;8.00;;;-1.80;99.90;;;;;;5011580;28;20173;-74
2021/11/23 05:52:34;;;;;;;13.63;8.63;;;-1.80;99.90;;;;;;5011438;28;20774;-71
2021/11/23 05:55:00;;;;;;;9.87;8.13;;;-1.90;99.90;;;;;;5011616;28;20549;-71
2021/11/23 05:57:25;;;;;;;13.13;8.77;;;-1.90;99.90;;;;;;5011581;28;20664;-72
2021/11/23 05:59:51;;;;;;;12.10;7.90;;;-1.90;99.90;;;;;;5011666;28;20217;-71
2021/11/23 06:02:16;;;;;;;11.77;8.13;;;-1.90;99.90;;;;;;5011197;28;20207;-71
2021/11/23 06:04:42;;;;;;;14.20;8.70;;;-1.80;99.90;;;;;;5013753;28;20181;-73
2021/11/23 06:07:07;;;;;;;12.67;8.40;;;-1.90;99.90;;;;;;5011516;28;20255;-72
2021/11/23 06:09:33;;;;;;;14.53;9.90;;;-1.90;99.90;;;;;;5011602;28;20178;-72
2021/11/23 06:11:58;;;;;;;12.37;7.47;;;-1.90;99.90;;;;;;5011521;28;20222;-73
2021/11/23 06:14:24;;;;;;;17.90;10.23;;;-1.90;99.90;;;;;;5010927;28;20625;-73
2021/11/23 06:16:50;;;;;;;14.37;7.70;;;-1.90;99.90;;;;;;5011640;28;20178;-73
2021/11/23 06:19:16;;;;;;;18.00;10.80;;;-1.90;99.90;;;;;;5011272;28;20163;-73
2021/11/23 06:21:42;;;;;;;12.70;8.60;;;-1.90;99.90;;;;;;5011388;28;20227;-74
2021/11/23 06:24:09;;;;;;;14.87;9.27;;;-1.90;99.90;;;;;;5010813;28;20187;-74
2021/11/23 06:26:35;;;;;;;13.33;8.83;;;-1.90;99.90;;;;;;5011482;28;20475;-74
2021/11/23 06:29:00;;;;;;;13.67;8.97;;;-2.00;99.90;;;;;;5011369;28;20969;-73
2021/11/23 06:31:26;;;;;;;14.00;8.90;;;-2.00;99.90;;;;;;5011085;28;20519;-73
2021/11/23 06:33:54;;;;;;;12.27;9.10;;;-2.00;99.90;;;;;;5011080;28;20211;-72
2021/11/23 06:36:21;;;;;;;14.70;10.47;;;-2.00;99.90;;;;;;5011170;28;20196;-73
2021/11/23 06:38:47;;;;;;;14.77;8.87;;;-2.00;99.90;;;;;;5011328;28;20407;-73
2021/11/23 06:41:12;;;;;;;11.57;8.67;;;-2.00;99.90;;;;;;5010942;28;20406;-71
2021/11/23 06:43:38;;;;;;;12.53;9.30;;;-2.00;99.90;;;;;;5011023;28;20439;-73
2021/11/23 06:46:04;;;;;;;13.17;9.20;;;-2.00;99.90;;;;;;5011147;28;20186;-72
2021/11/23 06:48:29;;;;;;;12.20;9.10;;;-1.90;99.90;;;;;;5014175;28;20192;-72
2021/11/23 06:50:55;;;;;;;15.30;9.63;;;-1.80;99.90;;;;;;5014427;28;20196;-72
2021/11/23 06:53:20;;;;;;;13.90;9.80;;;-1.80;99.90;;;;;;5014005;28;20212;-72
2021/11/23 06:55:46;;;;;;;12.93;9.60;;;-1.80;99.90;;;;;;5014704;28;20181;-72
2021/11/23 06:58:12;;;;;;;14.17;8.17;;;-1.80;99.90;;;;;;4980631;28;20263;-72
2021/11/23 07:00:39;;;;;;;14.60;8.70;;;-1.80;99.90;;;;;;5014777;28;20233;-72
2021/11/23 07:03:04;;;;;;;11.10;7.90;;;-1.80;99.90;;;;;;5014224;28;20171;-71
2021/11/23 07:05:30;;;;;;;12.50;7.80;;;-1.80;99.90;;;;;;4980675;28;20491;-71
2021/11/23 07:07:57;;;;;;;15.27;8.17;;;-1.80;99.90;;;;;;5014218;28;20177;-72
2021/11/23 07:10:23;;;;;;;15.67;9.97;;;-1.80;99.90;;;;;;5014333;28;20578;-72
2021/11/23 07:12:49;;;;;;;15.73;9.23;;;-1.70;99.90;;;;;;5014539;28;20407;-72
2021/11/23 07:15:14;;;;;;;14.83;9.80;;;-1.70;99.90;;;;;;5014133;28;20438;-72
2021/11/23 07:17:40;;;;;;;14.00;9.17;;;-1.70;99.90;;;;;;5014362;28;20180;-71
2021/11/23 07:20:06;;;;;;;11.63;7.83;;;-1.60;99.90;;;;;;5014235;28;20662;-73
2021/11/23 07:22:32;;;;;;;13.17;8.43;;;-1.60;99.90;;;;;;5013894;28;20250;-72
2021/11/23 07:24:57;;;;;;;16.83;9.80;;;-1.60;99.90;;;;;;5013753;28;20894;-72
2021/11/23 07:27:23;;;;;;;14.83;9.90;;;-1.60;99.90;;;;;;5014086;28;20184;-72
2021/11/23 07:29:49;;;;;;;13.93;8.90;;;-1.50;99.90;;;;;;5013874;28;20182;-71
2021/11/23 07:32:14;;;;;;;14.63;9.77;;;-1.40;99.90;;;;;;5013619;28;20228;-70
2021/11/23 07:34:41;;;;;;;19.20;10.63;;;-1.40;99.90;;;;;;5007637;28;20439;-72
2021/11/23 07:37:07;;;;;;;17.30;11.43;;;-1.40;99.90;;;;;;5005379;28;20189;-72
2021/11/23 07:39:33;;;;;;;17.50;11.50;;;-1.30;99.90;;;;;;5013698;28;20422;-72
2021/11/23 07:41:58;;;;;;;19.13;11.37;;;-1.30;99.90;;;;;;5013824;28;20868;-72
2021/11/23 07:44:24;;;;;;;24.57;12.17;;;-1.20;99.90;;;;;;5013424;28;20430;-72
2021/11/23 07:46:49;;;;;;;22.97;12.37;;;-1.10;99.90;;;;;;5013681;28;20185;-72
2021/11/23 07:49:15;;;;;;;15.93;9.57;;;-1.00;99.90;;;;;;5013330;28;20573;-73
2021/11/23 07:51:41;;;;;;;14.80;10.10;;;-0.90;99.90;;;;;;5013485;28;20565;-73
2021/11/23 07:54:07;;;;;;;14.87;9.33;;;-0.90;99.90;;;;;;5013365;28;20567;-73
2021/11/23 07:56:33;;;;;;;12.53;8.37;;;-0.90;99.90;;;;;;5013527;28;20651;-73
2021/11/23 07:58:59;;;;;;;12.37;8.93;;;-0.80;99.90;;;;;;5014454;28;20210;-73
2021/11/23 08:01:25;;;;;;;14.50;8.77;;;-0.80;99.90;;;;;;5015617;28;20423;-73
2021/11/23 08:03:50;;;;;;;14.33;8.87;;;-0.60;99.90;;;;;;5013380;28;20395;-72
2021/11/23 08:06:16;;;;;;;13.40;8.77;;;-0.60;99.90;;;;;;5013112;28;20189;-72
2021/11/23 08:08:42;;;;;;;12.20;8.90;;;-0.40;99.90;;;;;;5013390;28;20224;-73
2021/11/23 08:11:08;;;;;;;13.33;9.17;;;-0.30;99.90;;;;;;5013231;28;20409;-72
2021/11/23 08:13:34;;;;;;;13.97;9.67;;;-0.20;99.90;;;;;;5012778;28;20945;-71
2021/11/23 08:16:03;;;;;;;17.87;8.90;;;-0.30;99.90;;;;;;5013260;28;20177;-73
2021/11/23 08:18:31;;;;;;;14.37;9.77;;;-0.10;99.90;;;;;;5012991;28;20380;-72
2021/11/23 08:20:57;;;;;;;18.27;10.03;;;0.00;99.90;;;;;;5013062;28;20431;-73
2021/11/23 08:23:23;;;;;;;13.27;9.60;;;0.00;99.90;;;;;;5012551;28;20384;-73
2021/11/23 08:25:48;;;;;;;17.00;11.13;;;0.10;99.90;;;;;;5013058;28;20465;-72
2021/11/23 08:28:14;;;;;;;17.60;10.50;;;0.30;99.90;;;;;;5012739;28;20468;-72
2021/11/23 08:30:40;;;;;;;15.47;10.67;;;0.30;99.90;;;;;;5013005;28;20175;-72
2021/11/23 08:33:07;;;;;;;15.77;9.50;;;0.50;99.90;;;;;;5012619;28;20802;-72
2021/11/23 08:35:32;;;;;;;19.53;10.43;;;0.50;99.90;;;;;;5012923;28;20943;-72
2021/11/23 08:37:58;;;;;;;15.27;9.90;;;0.70;99.90;;;;;;5012851;28;20384;-72
2021/11/23 08:40:23;;;;;;;15.47;10.47;;;0.80;99.90;;;;;;5012544;28;20175;-72
2021/11/23 08:42:51;;;;;;;15.53;11.33;;;1.00;99.90;;;;;;5012526;28;20248;-72
2021/11/23 08:45:17;;;;;;;13.83;10.33;;;1.10;99.90;;;;;;5012424;28;20168;-72
2021/11/23 08:47:43;;;;;;;12.70;9.57;;;1.30;99.90;;;;;;5011492;28;21017;-72
2021/11/23 08:50:10;;;;;;;15.00;9.67;;;1.50;99.90;;;;;;5012336;28;20497;-72
2021/11/23 08:52:36;;;;;;;14.20;9.70;;;1.80;99.90;;;;;;5012342;28;20627;-72
2021/11/23 08:55:03;;;;;;;13.10;8.70;;;2.30;99.90;;;;;;5012313;28;20436;-72
2021/11/23 08:57:29;;;;;;;12.03;9.40;;;2.70;99.90;;;;;;5012260;28;20389;-72
2021/11/23 09:00:09;;;;;;;10.77;9.13;;;3.30;99.90;;;;;;5012586;28;20425;-72
2021/11/23 09:02:35;;;;;;;11.13;8.40;;;3.70;99.90;;;;;;5012054;28;20248;-72
2021/11/23 09:05:00;;;;;;;11.33;8.50;;;4.10;99.90;;;;;;5012234;28;20497;-72
2021/11/23 09:07:26;;;;;;;9.33;8.03;;;4.70;99.90;;;;;;5012167;28;20181;-72
2021/11/23 09:09:51;;;;;;;9.70;8.20;;;5.10;99.90;;;;;;5012132;28;20233;-72
2021/11/23 09:12:18;;;;;;;11.90;7.73;;;5.40;99.90;;;;;;5011383;28;20199;-71
2021/11/23 09:14:44;;;;;;;9.37;8.20;;;5.60;99.90;;;;;;4994356;28;20294;-73
2021/11/23 09:17:10;;;;;;;8.77;7.87;;;6.00;99.90;;;;;;5011907;28;20461;-71
2021/11/23 09:19:36;;;;;;;8.10;7.30;;;6.20;99.90;;;;;;5012048;28;20444;-72
2021/11/23 09:22:02;;;;;;;10.00;9.00;;;6.40;99.90;;;;;;5012007;28;20196;-72
2021/11/23 09:24:28;;;;;;;9.17;7.80;;;6.50;99.90;;;;;;5011722;28;20496;-71
2021/11/23 09:26:53;;;;;;;13.03;8.40;;;6.80;99.90;;;;;;5012096;28;20516;-72
2021/11/23 09:29:20;;;;;;;9.27;7.50;;;7.20;99.90;;;;;;5011924;28;20186;-72
2021/11/23 09:31:46;;;;;;;8.73;7.83;;;7.30;99.90;;;;;;5008308;28;20822;-71
2021/11/23 09:34:13;;;;;;;13.50;8.87;;;7.30;99.90;;;;;;5011062;28;20458;-71
2021/11/23 09:36:40;;;;;;;9.27;8.30;;;7.20;99.90;;;;;;5011597;28;20496;-71
2021/11/23 09:39:06;;;;;;;10.50;9.03;;;7.40;99.90;;;;;;5011348;28;20449;-72
2021/11/23 09:41:33;;;;;;;10.13;8.50;;;7.60;99.90;;;;;;5011462;28;20501;-70
2021/11/23 09:44:00;;;;;;;9.80;7.80;;;7.60;99.90;;;;;;5011446;28;20476;-71
2021/11/23 09:46:30;;;;;;;8.43;7.63;;;7.80;99.90;;;;;;5011645;28;20413;-72
2021/11/23 09:48:56;;;;;;;11.03;8.13;;;7.40;99.90;;;;;;5011795;28;20490;-72
2021/11/23 09:51:28;;;;;;;8.63;7.80;;;7.50;99.90;;;;;;5011490;28;21025;-71
2021/11/23 09:53:56;;;;;;;11.43;7.57;;;7.50;99.90;;;;;;5010966;28;20197;-71
2021/11/23 09:56:21;;;;;;;10.63;7.43;;;7.20;99.90;;;;;;5011849;28;20501;-71
2021/11/23 09:58:54;;;;;;;10.03;7.83;;;7.20;99.90;;;;;;5011370;28;20501;-71
2021/11/23 10:01:20;;;;;;;9.47;8.53;;;7.00;99.90;;;;;;5011334;28;20204;-71
2021/11/23 10:03:46;;;;;;;15.87;8.20;;;7.30;99.90;;;;;;5011312;28;20452;-72
2021/11/23 10:06:20;;;;;;;16.63;7.27;;;7.50;99.90;;;;;;5011603;28;20414;-72
2021/11/23 10:08:48;;;;;;;7.97;7.20;;;7.70;99.90;;;;;;5011655;28;20229;-71
2021/11/23 10:11:26;;;;;;;9.63;7.43;;;7.70;99.90;;;;;;5011603;28;20445;-72
2021/11/23 10:13:58;;;;;;;10.37;7.97;;;7.60;99.90;;;;;;5011214;28;20462;-72
2021/11/23 10:16:35;;;;;;;8.23;7.43;;;7.70;99.90;;;;;;5011476;28;20896;-71
2021/11/23 10:19:05;;;;;;;15.70;8.53;;;7.70;99.90;;;;;;5011370;28;20429;-72
2021/11/23 10:21:31;;;;;;;9.40;8.40;;;7.60;99.90;;;;;;5011340;28;20469;-71
2021/11/23 10:23:57;;;;;;;12.40;9.60;;;7.50;99.90;;;;;;5015078;28;20476;-72
2021/11/23 10:26:30;;;;;;;10.10;9.10;;;7.80;99.90;;;;;;5015302;28;20180;-72
2021/11/23 10:29:03;;;;;;;9.17;8.20;;;7.90;99.90;;;;;;5015230;28;20269;-72
2021/11/23 10:31:31;;;;;;;11.60;8.80;;;7.80;99.90;;;;;;5014913;28;20466;-72
2021/11/23 10:34:00;;;;;;;9.57;8.57;;;7.90;99.90;;;;;;5014758;28;20473;-72
2021/11/23 10:36:35;;;;;;;10.23;9.03;;;7.80;99.90;;;;;;5015063;28;20424;-71
2021/11/23 10:39:18;;;;;;;9.63;8.00;;;7.90;99.90;;;;;;5015050;28;20426;-71
2021/11/23 10:41:55;;;;;;;8.97;8.07;;;8.20;99.90;;;;;;5014878;28;20475;-72
2021/11/23 10:44:29;;;;;;;9.97;8.23;;;8.10;99.90;;;;;;5014510;28;20460;-72
2021/11/23 10:47:00;;;;;;;8.37;7.57;;;8.20;99.90;;;;;;5015020;28;20412;-71
2021/11/23 10:49:43;;;;;;;8.70;7.50;;;8.10;99.90;;;;;;5014618;28;20510;-71
2021/11/23 10:52:33;;;;;;;11.47;8.03;;;8.20;99.90;;;;;;5014853;28;20445;-70
2021/11/23 10:54:58;;;;;;;8.33;7.40;;;8.00;99.90;;;;;;5014551;28;20491;-72
2021/11/23 10:57:25;;;;;;;9.90;7.10;;;7.90;99.90;;;;;;5014696;28;20450;-71
2021/11/23 10:59:51;;;;;;;9.47;7.73;;;7.90;99.90;;;;;;5014645;28;20183;-72
2021/11/23 11:02:16;;;;;;;7.73;6.93;;;7.90;99.90;;;;;;5014426;28;20477;-71
2021/11/23 11:04:44;;;;;;;7.67;6.80;;;8.00;99.90;;;;;;5014386;28;20469;-72
2021/11/23 11:07:10;;;;;;;9.90;6.83;;;7.90;99.90;;;;;;5014544;28;20200;-71
2021/11/23 11:09:38;;;;;;;9.10;8.17;;;7.70;99.90;;;;;;5014495;28;20448;-71
2021/11/23 11:12:04;;;;;;;11.03;8.07;;;7.70;99.90;;;;;;5014344;28;20521;-71
2021/11/23 11:14:35;;;;;;;9.30;7.90;;;7.60;99.90;;;;;;5014037;28;20458;-72
2021/11/23 11:17:09;;;;;;;10.33;8.00;;;7.70;99.90;;;;;;5014360;28;20405;-71
2021/11/23 11:19:47;;;;;;;9.00;7.30;;;7.50;99.90;;;;;;5014256;28;20416;-72
2021/11/23 11:22:14;;;;;;;11.90;7.80;;;7.60;99.90;;;;;;5014428;28;20913;-71
2021/11/23 11:25:17;;;;;;;8.33;7.40;;;7.70;99.90;;;;;;5013978;28;20425;-72
2021/11/23 11:27:47;;;;;;;10.63;8.50;;;7.70;99.90;;;;;;5014062;28;20417;-72
2021/11/23 11:30:41;;;;;;;10.60;8.43;;;7.80;99.90;;;;;;5014288;28;20804;-72
2021/11/23 11:33:07;;;;;;;10.27;7.87;;;7.80;99.90;;;;;;5013136;28;20451;-72
2021/11/23 11:35:47;;;;;;;9.40;7.90;;;8.00;99.90;;;;;;5013431;28;20410;-71
2021/11/23 11:38:28;;;;;;;9.40;7.17;;;8.10;99.90;;;;;;5013973;28;20180;-72
2021/11/23 11:40:55;;;;;;;7.70;6.97;;;7.90;99.90;;;;;;5013918;28;20434;-72
2021/11/23 11:43:29;;;;;;;7.90;6.23;;;7.80;99.90;;;;;;5013708;28;20434;-71
2021/11/23 11:45:55;;;;;;;7.57;6.77;;;7.50;99.90;;;;;;5013941;28;20807;-71
2021/11/23 11:48:33;;;;;;;7.97;6.03;;;7.50;99.90;;;;;;5013863;28;20415;-73
2021/11/23 11:51:26;;;;;;;7.03;6.33;;;7.40;99.90;;;;;;5012932;28;20237;-72
2021/11/23 11:53:53;;;;;;;8.10;6.27;;;7.20;99.90;;;;;;5013794;28;20457;-71
2021/11/23 11:56:37;;;;;;;10.53;6.30;;;7.30;99.90;;;;;;5013493;28;20396;-71
2021/11/23 11:59:04;;;;;;;10.27;5.70;;;7.30;99.90;;;;;;5013713;28;20930;-72
2021/11/23 12:01:33;;;;;;;10.63;6.60;;;7.30;99.90;;;;;;5013163;28;20903;-72
2021/11/23 12:04:20;;;;;;;7.20;6.07;;;7.30;99.90;;;;;;5013380;28;20436;-71
2021/11/23 12:06:56;;;;;;;6.57;5.87;;;7.20;99.90;;;;;;5013271;28;20480;-71
2021/11/23 12:09:43;;;;;;;7.67;6.53;;;7.00;99.90;;;;;;5013419;28;20925;-71
2021/11/23 12:12:08;;;;;;;5.60;4.80;;;6.90;99.90;;;;;;5013135;28;20436;-70
2021/11/23 12:14:51;;;;;;;6.20;5.60;;;6.80;99.90;;;;;;5011752;28;20464;-71
2021/11/23 12:17:25;;;;;;;7.00;5.50;;;6.70;99.90;;;;;;5013141;28;20181;-72
2021/11/23 12:20:11;;;;;;;6.77;5.60;;;6.60;99.90;;;;;;5013362;28;20417;-72
2021/11/23 12:22:41;;;;;;;6.53;5.43;;;6.50;99.90;;;;;;5012814;28;20436;-72
2021/11/23 12:25:11;;;;;;;8.13;5.17;;;6.40;99.90;;;;;;5013079;28;20386;-72
2021/11/23 12:27:38;;;;;;;8.07;6.30;;;6.30;99.90;;;;;;5012870;28;20421;-72
2021/11/23 12:30:05;;;;;;;6.57;5.70;;;6.30;99.90;;;;;;5013137;28;20413;-72
2021/11/23 12:32:36;;;;;;;7.10;6.17;;;6.30;99.90;;;;;;5012413;28;20426;-71
2021/11/23 12:35:03;;;;;;;9.30;5.50;;;6.40;99.90;;;;;;5012813;28;20469;-71
2021/11/23 12:37:34;;;;;;;7.87;5.93;;;6.40;99.90;;;;;;5012555;28;20396;-71
2021/11/23 12:40:30;;;;;;;6.20;5.57;;;6.50;99.90;;;;;;5012844;28;20425;-72
2021/11/23 12:43:00;;;;;;;8.50;5.87;;;6.50;99.90;;;;;;5000283;28;20449;-72
2021/11/23 12:45:35;;;;;;;6.47;5.87;;;6.50;99.90;;;;;;5012455;28;20504;-72
2021/11/23 12:48:06;;;;;;;8.13;5.33;;;6.50;99.90;;;;;;5012735;28;20413;-72
2021/11/23 12:50:33;;;;;;;13.33;7.20;;;6.50;99.90;;;;;;5012263;28;20976;-71
2021/11/23 12:53:02;;;;;;;9.37;5.70;;;6.50;99.90;;;;;;5012512;28;20906;-72
2021/11/23 12:55:28;;;;;;;7.07;6.00;;;6.50;99.90;;;;;;5011573;28;20388;-72
2021/11/23 12:57:54;;;;;;;7.73;6.27;;;6.50;99.90;;;;;;5012463;28;20406;-71
2021/11/23 13:00:20;;;;;;;8.07;5.50;;;6.50;99.90;;;;;;5011502;28;20193;-72
2021/11/23 13:02:47;;;;;;;5.93;5.33;;;6.50;99.90;;;;;;5012065;28;20509;-71
2021/11/23 13:05:17;;;;;;;5.70;5.20;;;6.40;99.90;;;;;;5011377;28;20413;-71
2021/11/23 13:07:52;;;;;;;6.60;5.10;;;6.40;99.90;;;;;;5012170;28;20787;-72
2021/11/23 13:10:25;;;;;;;4.43;4.07;;;6.40;99.90;;;;;;5012469;28;20409;-71
2021/11/23 13:13:01;;;;;;;7.00;4.97;;;6.40;99.90;;;;;;5012079;28;20918;-71
2021/11/23 13:15:34;;;;;;;7.90;4.57;;;6.40;99.90;;;;;;5012163;28;20568;-72
2021/11/23 13:18:10;;;;;;;8.40;4.77;;;6.40;99.90;;;;;;5012271;28;20666;-72
2021/11/23 13:20:45;;;;;;;4.50;4.10;;;6.40;99.90;;;;;;5012017;28;20414;-71
2021/11/23 13:23:27;;;;;;;5.80;4.47;;;6.40;99.90;;;;;;5012754;28;20892;-72
2021/11/23 13:26:05;;;;;;;6.50;4.67;;;6.30;99.90;;;;;;5012228;28;20551;-72
2021/11/23 13:28:45;;;;;;;5.77;4.83;;;6.40;99.90;;;;;;5011904;28;20783;-72
2021/11/23 13:31:18;;;;;;;4.83;3.70;;;6.40;99.90;;;;;;5011878;28;20453;-72
2021/11/23 13:33:53;;;;;;;4.33;3.87;;;6.30;99.90;;;;;;5011421;28;20479;-72
2021/11/23 13:36:25;;;;;;;5.00;4.60;;;6.30;99.90;;;;;;5012035;28;20416;-72
2021/11/23 13:39:07;;;;;;;11.73;4.03;;;6.30;99.90;;;;;;5011819;28;20779;-72
2021/11/23 13:41:42;;;;;;;3.73;3.03;;;6.30;99.90;;;;;;5011714;28;21052;-72
2021/11/23 13:44:29;;;;;;;4.27;3.97;;;6.30;99.90;;;;;;5011567;28;20423;-72
2021/11/23 13:47:02;;;;;;;4.03;3.63;;;6.30;99.90;;;;;;5012417;28;20415;-72
2021/11/23 13:49:32;;;;;;;4.23;2.87;;;6.30;99.90;;;;;;5011969;28;20414;-71
2021/11/23 13:52:07;;;;;;;2.53;2.30;;;6.30;99.90;;;;;;5011811;28;20438;-71
2021/11/23 13:54:44;;;;;;;4.10;3.57;;;6.30;99.90;;;;;;5011162;28;20459;-71
2021/11/23 13:57:22;;;;;;;3.50;3.20;;;6.30;99.90;;;;;;5011337;28;20412;-72
2021/11/23 13:59:52;;;;;;;3.90;3.50;;;6.30;99.90;;;;;;5011458;28;20927;-72
2021/11/23 14:02:18;;;;;;;2.43;2.23;;;6.20;99.90;;;;;;5011548;28;20428;-71
2021/11/23 14:04:45;;;;;;;2.77;2.43;;;6.20;99.90;;;;;;5010133;28;20423;-72
2021/11/23 14:07:16;;;;;;;2.67;2.47;;;6.20;99.90;;;;;;5011822;28;20666;-72
2021/11/23 14:09:54;;;;;;;2.13;2.03;;;6.10;99.90;;;;;;5011344;28;20447;-71
2021/11/23 14:12:29;;;;;;;2.50;2.40;;;6.10;99.90;;;;;;5011475;28;20480;-72
2021/11/23 14:15:00;;;;;;;2.43;2.23;;;6.20;99.90;;;;;;5011418;28;20456;-71
2021/11/23 14:18:00;;;;;;;2.07;1.90;;;6.20;99.90;;;;;;5011349;28;20415;-71
2021/11/23 14:20:33;;;;;;;5.47;2.57;;;6.10;99.90;;;;;;5011434;28;20786;-72
2021/11/23 14:23:05;;;;;;;3.37;1.80;;;6.10;99.90;;;;;;5011257;28;20383;-72
2021/11/23 14:25:31;;;;;;;2.20;2.00;;;6.10;99.90;;;;;;5011259;28;20405;-71
2021/11/23 14:28:00;;;;;;;13.67;4.73;;;6.10;99.90;;;;;;5011280;28;20500;-71
2021/11/23 14:30:27;;;;;;;2.20;2.00;;;6.00;99.90;;;;;;5011407;28;20166;-71
2021/11/23 14:32:53;;;;;;;3.43;2.60;;;6.00;99.90;;;;;;5010851;28;21038;-71
2021/11/23 14:35:19;;;;;;;2.20;2.00;;;6.00;99.90;;;;;;5011450;28;20832;-72
2021/11/23 14:37:45;;;;;;;2.33;2.23;;;6.00;99.90;;;;;;5011049;28;20412;-72
2021/11/23 14:40:14;;;;;;;2.70;2.50;;;6.00;99.90;;;;;;5011402;28;20179;-71
2021/11/23 14:42:39;;;;;;;3.07;2.77;;;5.90;99.90;;;;;;5009543;28;20200;-71
2021/11/23 14:45:05;;;;;;;2.77;2.50;;;5.90;99.90;;;;;;5011211;28;20415;-71
2021/11/23 14:47:31;;;;;;;2.60;2.23;;;5.90;99.90;;;;;;5011043;28;20232;-70
2021/11/23 14:49:56;;;;;;;2.83;2.60;;;5.90;99.90;;;;;;5011093;28;20456;-71
2021/11/23 14:52:22;;;;;;;2.80;2.60;;;5.90;99.90;;;;;;5011067;28;20201;-70
2021/11/23 14:54:48;;;;;;;2.73;2.50;;;5.80;99.90;;;;;;5010770;28;20216;-71
2021/11/23 14:57:13;;;;;;;4.30;3.30;;;5.70;99.90;;;;;;5011220;28;20181;-72
2021/11/23 14:59:40;;;;;;;3.37;2.40;;;5.70;99.90;;;;;;5010732;28;20182;-71
2021/11/23 15:02:05;;;;;;;3.00;2.80;;;5.60;99.90;;;;;;5011050;28;20190;-72
2021/11/23 15:04:31;;;;;;;3.33;2.20;;;5.60;99.90;;;;;;5010568;28;20411;-71
2021/11/23 15:06:56;;;;;;;2.60;2.40;;;5.50;99.90;;;;;;5011141;28;20192;-71
2021/11/23 15:09:23;;;;;;;3.90;2.47;;;5.50;99.90;;;;;;5012280;28;20730;-71
2021/11/23 15:11:49;;;;;;;3.00;2.70;;;5.40;99.90;;;;;;5014324;28;20213;-72
2021/11/23 15:14:14;;;;;;;5.83;3.77;;;5.40;99.90;;;;;;5014281;28;20436;-71
2021/11/23 15:16:40;;;;;;;4.00;3.60;;;5.30;99.90;;;;;;5014170;28;20449;-71
2021/11/23 15:19:09;;;;;;;2.87;2.67;;;5.20;99.90;;;;;;5014496;28;20211;-71
2021/11/23 15:21:41;;;;;;;3.73;3.43;;;5.10;99.90;;;;;;5014024;28;20476;-72
2021/11/23 15:24:07;;;;;;;3.30;3.00;;;5.00;99.90;;;;;;5012909;28;20944;-71
2021/11/23 15:26:32;;;;;;;5.20;3.37;;;5.00;99.90;;;;;;5013941;28;20505;-72
2021/11/23 15:28:58;;;;;;;4.03;3.40;;;4.90;99.90;;;;;;5014319;28;20447;-72
2021/11/23 15:31:24;;;;;;;5.63;3.53;;;4.80;99.90;;;;;;5013820;28;20317;-73
2021/11/23 15:33:51;;;;;;;6.23;3.70;;;4.70;99.90;;;;;;5013714;28;20205;-72
2021/11/23 15:36:17;;;;;;;5.00;3.80;;;4.60;99.90;;;;;;5014056;28;20921;-72
2021/11/23 15:38:43;;;;;;;3.23;2.93;;;4.40;99.90;;;;;;5013731;28;20417;-71
2021/11/23 15:41:13;;;;;;;11.90;3.30;;;4.20;99.90;;;;;;5013945;28;20435;-71
2021/11/23 15:43:39;;;;;;;2.90;2.33;;;4.00;99.90;;;;;;5014443;28;20477;-71
2021/11/23 15:46:05;;;;;;;3.50;2.70;;;3.80;99.90;;;;;;5014081;28;20433;-71
2021/11/23 15:48:31;;;;;;;6.03;4.20;;;3.70;99.90;;;;;;5013558;28;20409;-71
2021/11/23 15:50:58;;;;;;;5.37;4.97;;;3.50;99.90;;;;;;5013757;28;20211;-69
2021/11/23 15:53:24;;;;;;;9.87;3.80;;;3.40;99.90;;;;;;5013331;28;20822;-72
2021/11/23 15:55:52;;;;;;;4.50;4.17;;;3.30;99.90;;;;;;5013731;28;20384;-73
2021/11/23 15:58:18;;;;;;;6.87;6.00;;;3.10;99.90;;;;;;5013591;28;20483;-73
2021/11/23 16:00:43;;;;;;;7.63;4.70;;;3.00;99.90;;;;;;5013466;28;20918;-73
2021/11/23 16:03:09;;;;;;;13.60;4.90;;;2.90;99.90;;;;;;5013396;28;20623;-73
2021/11/23 16:05:35;;;;;;;6.03;5.40;;;2.80;99.90;;;;;;5013318;28;20181;-73
2021/11/23 16:08:03;;;;;;;7.83;5.10;;;2.60;99.90;;;;;;5013460;28;20658;-73
2021/11/23 16:10:28;;;;;;;14.30;4.60;;;2.50;99.90;;;;;;5013252;28;20469;-73
2021/11/23 16:12:57;;;;;;;4.87;4.07;;;2.40;99.90;;;;;;5013081;28;20586;-73
2021/11/23 16:15:23;;;;;;;5.40;4.23;;;2.30;99.90;;;;;;5010562;28;20206;-72
2021/11/23 16:17:48;;;;;;;6.23;4.73;;;2.20;99.90;;;;;;5025876;28;20972;-73
2021/11/23 16:20:15;;;;;;;15.73;4.77;;;2.10;99.90;;;;;;5032483;28;20407;-73
2021/11/23 16:22:41;;;;;;;5.00;4.60;;;2.00;99.90;;;;;;5031372;28;20213;-72
2021/11/23 16:25:07;;;;;;;4.60;4.20;;;1.90;99.90;;;;;;5032342;28;20761;-72
2021/11/23 16:27:38;;;;;;;9.83;3.80;;;1.80;99.90;;;;;;5032558;28;20441;-73
2021/11/23 16:30:09;;;;;;;5.33;3.77;;;1.70;99.90;;;;;;5032935;28;20469;-73
2021/11/23 16:32:35;;;;;;;5.77;3.63;;;1.60;99.90;;;;;;5032221;28;20455;-73
2021/11/23 16:35:01;;;;;;;6.90;5.50;;;1.60;99.90;;;;;;5032550;28;20852;-72
2021/11/23 16:37:26;;;;;;;9.80;6.90;;;1.60;99.90;;;;;;5014744;28;20432;-72
2021/11/23 16:39:52;;;;;;;12.80;6.37;;;1.50;99.90;;;;;;5032601;28;20174;-73
2021/11/23 16:42:18;;;;;;;5.53;5.10;;;1.40;99.90;;;;;;5032431;28;20276;-72
2021/11/23 16:44:44;;;;;;;8.43;5.00;;;1.30;99.90;;;;;;5032450;28;20188;-73
2021/11/23 16:47:14;;;;;;;10.67;5.50;;;1.20;99.90;;;;;;5032642;28;20841;-73
2021/11/23 16:49:41;;;;;;;12.00;6.60;;;1.20;99.90;;;;;;5032394;28;20395;-73
2021/11/23 16:52:10;;;;;;;19.80;5.40;;;1.10;99.90;;;;;;5032366;28;20813;-72
2021/11/23 16:54:37;;;;;;;5.77;4.07;;;1.00;99.90;;;;;;5031969;28;20465;-73
2021/11/23 16:57:03;;;;;;;5.23;4.70;;;1.00;99.90;;;;;;5032356;28;20394;-73
2021/11/23 16:59:28;;;;;;;5.33;3.83;;;0.90;99.90;;;;;;5032036;28;20435;-72
2021/11/23 17:01:54;;;;;;;4.97;4.13;;;0.90;99.90;;;;;;5032218;28;20191;-73
2021/11/23 17:04:19;;;;;;;14.37;6.77;;;0.90;99.90;;;;;;5031910;28;20556;-73
2021/11/23 17:06:52;;;;;;;13.80;5.70;;;1.00;99.90;;;;;;5032062;28;20662;-72
2021/11/23 17:09:18;;;;;;;7.93;4.93;;;1.00;99.90;;;;;;5014294;28;20940;-72
2021/11/23 17:11:43;;;;;;;6.43;4.87;;;1.00;99.90;;;;;;5031885;28;20415;-73
2021/11/23 17:14:09;;;;;;;12.80;4.90;;;1.00;99.90;;;;;;5031539;28;20461;-72
2021/11/23 17:16:35;;;;;;;6.13;4.03;;;0.90;99.90;;;;;;5002639;28;20211;-72
2021/11/23 17:19:00;;;;;;;6.43;4.70;;;0.80;99.90;;;;;;5011626;28;20238;-72
2021/11/23 17:21:26;;;;;;;10.93;4.70;;;0.80;99.90;;;;;;5011487;28;20202;-72
2021/11/23 17:23:51;;;;;;;12.33;3.60;;;0.80;99.90;;;;;;5011138;28;20705;-72
2021/11/23 17:26:17;;;;;;;9.83;4.10;;;0.70;99.90;;;;;;5011647;28;20211;-73